Time;durP1;ratioP1;P1;durP2;ratioP2;P2;SDS_P1;SDS_P2;PMS_P1;PMS_P2;Temp;Humidity;BMP_temperature;BMP_pressure;BME280_temperature;BME280_humidity;BME280_pressure;Samples;Min_cycle;Max_cycle;Signal;HPM_P1;HPM_P2
2022/04/27 00:01:51;;;;;;;;;17.00;15.75;;;;;7.93;100.00;101307.03;3729379;38;20541;-76
2022/04/27 00:04:19;;;;;;;;;16.75;16.75;;;;;7.93;100.00;101313.25;3729212;38;20574;-76
2022/04/27 00:06:47;;;;;;;;;18.50;16.75;;;;;7.98;100.00;101310.97;3728971;37;20534;-74
2022/04/27 00:09:14;;;;;;;;;16.25;16.25;;;;;8.03;100.00;101306.97;3728741;38;20553;-74
2022/04/27 00:11:41;;;;;;;;;19.50;19.50;;;;;8.01;100.00;101325.16;3728712;37;20513;-75
2022/04/27 00:14:09;;;;;;;;;16.75;16.25;;;;;7.83;100.00;101300.81;3728654;37;20515;-74
2022/04/27 00:16:36;;;;;;;;;17.50;16.50;;;;;7.07;100.00;101192.38;3728472;38;20783;-74
2022/04/27 00:19:03;;;;;;;;;17.25;15.50;;;;;7.23;100.00;101220.37;3728034;37;20624;-75
2022/04/27 00:21:31;;;;;;;;;17.00;17.00;;;;;7.92;100.00;101334.97;3728843;37;20536;-74
2022/04/27 00:23:58;;;;;;;;;18.50;18.00;;;;;7.79;100.00;101313.78;3728446;37;20590;-74
2022/04/27 00:26:25;;;;;;;;;21.00;20.00;;;;;7.96;100.00;101336.38;3728660;38;20505;-74
2022/04/27 00:28:53;;;;;;;;;18.50;17.25;;;;;8.06;100.00;101339.88;3728749;38;20528;-74
2022/04/27 00:31:19;;;;;;;;;19.50;19.50;;;;;8.01;100.00;101338.63;3728827;37;20507;-74
2022/04/27 00:33:47;;;;;;;;;16.75;16.75;;;;;8.01;100.00;101344.88;3728811;37;20540;-75
2022/04/27 00:36:14;;;;;;;;;19.00;18.50;;;;;7.91;100.00;101326.03;3729476;37;20496;-75
2022/04/27 00:38:42;;;;;;;;;20.00;18.50;;;;;7.94;100.00;101341.06;3728804;38;20481;-74
2022/04/27 00:43:44;;;;;;;;;15.25;15.25;;;;;7.76;100.00;101326.69;3728753;38;20566;-75
2022/04/27 00:46:12;;;;;;;;;15.50;15.25;;;;;7.66;100.00;101318.63;3728802;38;20673;-75
2022/04/27 00:48:41;;;;;;;;;19.75;18.75;;;;;7.70;100.00;101319.19;3728261;37;20480;-74
2022/04/27 00:51:17;;;;;;;;;17.50;17.00;;;;;7.73;100.00;101344.00;3727900;38;20526;-75
2022/04/27 00:53:48;;;;;;;;;20.00;19.00;;;;;7.80;100.00;101330.78;3729349;37;20488;-77
2022/04/27 00:56:18;;;;;;;;;20.25;18.00;;;;;7.80;100.00;101341.56;3729302;37;20545;-75
2022/04/27 00:58:49;;;;;;;;;20.00;19.00;;;;;7.77;100.00;101341.84;3729336;37;20601;-75
2022/04/27 01:01:17;;;;;;;;;17.25;17.25;;;;;7.70;100.00;101346.13;3728952;38;20657;-75
2022/04/27 01:03:44;;;;;;;;;16.50;16.50;;;;;5.91;100.00;101050.03;3729730;37;20500;-75
2022/04/27 01:06:15;;;;;;;;;16.50;14.75;;;;;7.70;100.00;101346.13;3730399;37;20541;-76
2022/04/27 01:08:43;;;;;;;;;20.25;19.25;;;;;7.57;100.00;101351.81;3730503;37;20521;-75
2022/04/27 01:11:11;;;;;;;;;18.75;17.50;;;;;7.43;100.00;101355.81;3729031;38;20448;-76
2022/04/27 01:13:38;;;;;;;;;15.50;15.50;;;;;7.42;100.00;101359.50;3730079;38;20410;-75
2022/04/27 01:16:06;;;;;;;;;18.25;16.50;;;;;7.45;100.00;101367.28;3729969;38;20495;-75
2022/04/27 01:18:34;;;;;;;;;21.00;19.75;;;;;7.34;100.00;101351.28;3729752;37;20514;-75
2022/04/27 01:21:03;;;;;;;;;18.50;18.50;;;;;7.38;100.00;101355.37;3729643;37;20417;-75
2022/04/27 01:23:31;;;;;;;;;16.25;15.50;;;;;7.26;100.00;101359.25;3729436;38;20409;-76
2022/04/27 01:26:05;;;;;;;;;18.50;17.75;;;;;7.29;100.00;101354.41;3729216;37;20669;-75
2022/04/27 01:28:33;;;;;;;;;21.50;20.00;;;;;7.32;100.00;101361.34;3729533;37;20421;-75
2022/04/27 01:31:05;;;;;;;;;18.00;17.00;;;;;7.31;100.00;101348.87;3729445;38;20470;-75
2022/04/27 01:33:36;;;;;;;;;19.00;18.00;;;;;7.41;100.00;101360.50;3729909;37;20438;-76
2022/04/27 01:36:06;;;;;;;;;18.00;17.50;;;;;7.26;100.00;101359.25;3730953;38;20467;-78
2022/04/27 01:38:38;;;;;;;;;17.50;16.25;;;;;7.17;100.00;101346.66;3731677;37;20385;-77
2022/04/27 01:43:35;;;;;;;;;21.75;20.50;;;;;7.00;100.00;101341.97;3730569;37;19886;-77
2022/04/27 01:46:03;;;;;;;;;20.00;19.25;;;;;7.13;100.00;101362.22;3731052;38;19944;-76
2022/04/27 01:48:30;;;;;;;;;16.50;15.50;;;;;7.17;100.00;101365.50;3732399;37;19797;-79
2022/04/27 01:50:57;;;;;;;;;16.75;15.00;;;;;7.16;100.00;101361.09;3732403;37;19802;-79
2022/04/27 01:56:10;;;;;;;;;15.75;15.75;;;;;7.02;100.00;101373.13;3731728;37;19827;-78
2022/04/27 01:58:37;;;;;;;;;15.25;15.25;;;;;6.97;100.00;101357.41;3730711;37;19808;-77
2022/04/27 02:01:04;;;;;;;;;19.00;17.00;;;;;6.91;100.00;101357.97;3732453;38;19773;-78
2022/04/27 02:03:32;;;;;;;;;20.00;19.00;;;;;6.86;100.00;101348.59;3732571;37;19784;-77
2022/04/27 02:05:59;;;;;;;;;21.50;21.00;;;;;6.94;100.00;101364.91;3731959;37;19786;-77
2022/04/27 02:08:27;;;;;;;;;18.00;18.00;;;;;7.08;100.00;101366.34;3731679;38;19906;-77
2022/04/27 02:10:54;;;;;;;;;20.00;19.25;;;;;6.63;100.00;101284.34;3731228;37;19790;-77
2022/04/27 02:13:24;;;;;;;;;17.75;17.00;;;;;7.11;100.00;101348.06;3731077;37;19837;-78
2022/04/27 02:15:50;;;;;;;;;18.50;18.00;;;;;7.10;100.00;101330.22;3732414;37;19749;-77
2022/04/27 02:18:33;;;;;;;;;24.75;24.25;;;;;7.54;100.00;101379.91;3732950;37;19744;-77
2022/04/27 02:20:59;;;;;;;;;23.50;21.50;;;;;7.61;100.00;101390.94;3731323;37;19763;-78
2022/04/27 02:23:26;;;;;;;;;18.50;18.50;;;;;7.54;100.00;101387.97;3731926;37;19737;-79
2022/04/27 02:25:55;;;;;;;;;17.75;16.75;;;;;7.36;100.00;101378.91;3733015;37;19736;-78
2022/04/27 02:28:23;;;;;;;;;17.25;17.25;;;;;7.30;100.00;101380.34;3732237;37;19748;-77
2022/04/27 02:30:49;;;;;;;;;15.50;15.50;;;;;7.40;100.00;101399.19;3732733;38;19813;-78
2022/04/27 02:33:19;;;;;;;;;22.00;22.00;;;;;7.38;100.00;101382.31;3732239;37;19806;-78
2022/04/27 02:35:47;;;;;;;;;21.25;20.50;;;;;7.41;100.00;101391.97;3732409;38;19784;-79
2022/04/27 02:38:14;;;;;;;;;18.75;17.25;;;;;7.45;100.00;101396.91;3733642;38;20027;-82
2022/04/27 02:40:42;;;;;;;;;16.25;16.25;;;;;7.46;100.00;101378.91;3731710;37;19744;-79
2022/04/27 02:43:09;;;;;;;;;18.50;18.50;;;;;7.44;100.00;101379.06;3732738;38;19807;-78
2022/04/27 02:45:36;;;;;;;;;21.00;21.00;;;;;7.47;100.00;101377.91;3733408;37;19812;-78
2022/04/27 02:48:04;;;;;;;;;22.75;22.75;;;;;7.46;100.00;101371.69;3731719;37;19713;-78
2022/04/27 02:53:17;;;;;;;;;17.50;16.75;;;;;7.53;100.00;101386.28;3731010;38;19724;-76
2022/04/27 02:55:44;;;;;;;;;17.00;16.75;;;;;7.42;100.00;101362.19;3730392;37;19719;-76
2022/04/27 02:58:11;;;;;;;;;18.50;17.50;;;;;7.62;100.00;101381.88;3731824;38;19698;-79
2022/04/27 03:00:53;;;;;;;;;17.75;17.00;;;;;7.49;100.00;101374.09;3731099;37;20013;-74
2022/04/27 03:03:22;;;;;;;;;18.25;17.50;;;;;7.59;100.00;101395.63;3727183;38;19725;-73
2022/04/27 03:05:51;;;;;;;;;20.75;20.75;;;;;7.51;100.00;101387.41;3729185;38;19720;-77
2022/04/27 03:08:18;;;;;;;;;20.25;20.25;;;;;7.50;100.00;101375.78;3730771;37;19688;-76
2022/04/27 03:10:52;;;;;;;;;19.25;19.25;;;;;7.69;100.00;101409.09;3730625;38;19813;-76
2022/04/27 03:13:20;;;;;;;;;18.25;17.00;;;;;7.57;100.00;101376.91;3732280;37;19948;-78
2022/04/27 03:15:50;;;;;;;;;22.25;21.25;;;;;7.46;100.00;101370.84;3731169;38;19802;-76
2022/04/27 03:18:17;;;;;;;;;25.75;25.00;;;;;7.73;100.00;101415.91;3731460;37;19764;-77
2022/04/27 03:20:46;;;;;;;;;22.00;22.00;;;;;7.72;100.00;101395.34;3731641;37;19806;-78
2022/04/27 03:23:13;;;;;;;;;24.25;22.00;;;;;7.81;100.00;101414.16;3730834;38;19785;-74
2022/04/27 03:25:40;;;;;;;;;34.75;32.00;;;;;7.83;100.00;101397.84;3730774;38;19801;-76
2022/04/27 03:28:08;;;;;;;;;25.00;23.75;;;;;8.07;100.00;101410.84;3730615;37;19686;-76
2022/04/27 03:30:35;;;;;;;;;30.25;28.50;;;;;8.27;100.00;101425.97;3730968;37;19696;-78
2022/04/27 03:33:07;;;;;;;;;34.50;29.50;;;;;8.44;100.00;101427.03;3731327;38;19724;-76
2022/04/27 03:35:36;;;;;;;;;22.50;22.50;;;;;8.55;100.00;101421.44;3730955;37;19672;-79
2022/04/27 03:38:03;;;;;;;;;22.75;22.75;;;;;8.74;100.00;101409.72;3731187;38;19641;-81
2022/04/27 03:40:30;;;;;;;;;25.75;25.25;;;;;8.88;100.00;101423.53;3731107;37;20259;-79
2022/04/27 03:42:58;;;;;;;;;27.75;26.25;;;;;8.84;100.00;101422.12;3731079;37;20263;-77
2022/04/27 03:45:26;;;;;;;;;29.50;28.25;;;;;8.83;100.00;101425.84;3730008;38;20067;-75
2022/04/27 03:47:57;;;;;;;;;28.75;27.75;;;;;8.43;100.00;101353.34;3730088;38;20432;-75
2022/04/27 03:50:28;;;;;;;;;28.00;27.75;;;;;9.00;100.00;101439.50;3729770;38;20253;-74
2022/04/27 03:52:58;;;;;;;;;27.75;27.75;;;;;8.87;100.00;101405.63;3728917;38;20396;-75
2022/04/27 03:55:25;;;;;;;;;26.50;24.50;;;;;9.17;100.00;101434.13;3729760;37;20329;-75
2022/04/27 03:57:54;;;;;;;;;27.75;26.25;;;;;9.30;100.00;101428.38;3728298;37;20260;-73
2022/04/27 04:00:21;;;;;;;;;28.25;27.25;;;;;9.32;100.00;101412.84;3729604;38;20234;-74
2022/04/27 04:03:02;;;;;;;;;26.25;25.75;;;;;9.58;100.00;101437.22;3729358;38;20469;-75
2022/04/27 04:05:31;;;;;;;;;15.50;15.50;;;;;9.58;100.00;101416.44;3729311;38;20212;-75
2022/04/27 04:07:59;;;;;;;;;20.75;19.50;;;;;9.77;100.00;101409.16;3730664;37;20250;-77
2022/04/27 04:10:26;;;;;;;;;23.50;23.50;;;;;10.01;100.00;101427.38;3730515;37;20213;-78
2022/04/27 04:12:54;;;;;;;;;25.50;24.50;;;;;9.60;100.00;101348.72;3729666;38;20213;-78
2022/04/27 04:15:21;;;;;;;;;23.25;22.50;;;;;9.99;100.00;101357.25;3729426;38;21204;-80
2022/04/27 04:17:55;;;;;;;;;22.25;21.00;;;;;10.53;100.00;101420.94;3730572;38;21409;-77
2022/04/27 04:20:23;;;;;;;;;26.00;24.75;;;;;10.56;100.00;101411.66;3730459;38;21201;-78
2022/04/27 04:23:19;;;;;;;;;25.50;22.25;;;;;10.77;100.00;101431.03;3731424;38;21245;-77
2022/04/27 04:28:46;;;;;;;;;20.50;20.50;;;;;11.04;100.00;101401.97;3730740;37;21162;-78
2022/04/27 04:31:14;;;;;;;;;24.25;23.50;;;;;11.17;100.00;101400.50;3730245;37;21256;-79
2022/04/27 04:33:41;;;;;;;;;26.00;25.75;;;;;11.24;100.00;101404.22;3729990;37;21182;-77
2022/04/27 04:36:09;;;;;;;;;24.00;23.00;;;;;11.27;100.00;101394.91;3730352;37;21243;-79
2022/04/27 04:38:39;;;;;;;;;25.00;22.50;;;;;11.49;100.00;101417.78;3729249;37;21209;-74
2022/04/27 04:43:47;;;;;;;;;23.25;23.00;;;;;11.78;100.00;101431.72;3729803;37;21256;-79
2022/04/27 04:46:18;;;;;;;;;23.75;22.00;;;;;11.62;100.00;101399.16;3728664;38;21151;-78
2022/04/27 04:49:03;;;;;;;;;23.50;21.50;;;;;11.64;100.00;101431.50;3729183;38;21222;-80
2022/04/27 04:51:51;;;;;;;;;27.50;27.50;;;;;11.40;100.00;101384.44;3730695;37;21166;-84
2022/04/27 04:54:44;;;;;;;;;25.00;24.50;;;;;11.77;100.00;101437.31;3731286;37;21246;-82
2022/04/27 04:57:15;;;;;;;;;19.75;19.25;;;;;11.63;100.00;101451.50;3729920;38;21125;-81
2022/04/27 04:59:43;;;;;;;;;24.00;22.00;;;;;11.78;100.00;101439.00;3730562;37;21227;-80
2022/04/27 05:02:10;;;;;;;;;24.75;22.75;;;;;11.94;100.00;101436.28;3730720;37;21247;-81
2022/04/27 05:04:37;;;;;;;;;26.25;24.75;;;;;12.27;100.00;101434.34;3731744;38;21410;-82
2022/04/27 05:07:20;;;;;;;;;25.00;24.00;;;;;12.45;100.00;101432.28;3730892;37;21138;-80
2022/04/27 05:09:47;;;;;;;;;23.25;22.25;;;;;12.50;100.00;101434.44;3731552;38;21110;-80
2022/04/27 05:12:53;;;;;;;;;21.75;21.75;;;;;12.02;100.00;101373.00;3731554;37;21117;-79
2022/04/27 05:15:20;;;;;;;;;25.75;24.75;;;;;12.51;100.00;101436.97;3730734;37;21253;-79
2022/04/27 05:18:19;;;;;;;;;23.00;22.50;;;;;12.73;100.00;101450.81;3730673;37;21153;-79
2022/04/27 05:20:46;;;;;;;;;23.25;22.00;;;;;12.68;100.00;101418.75;3731221;38;21118;-80
2022/04/27 05:23:23;;;;;;;;;26.50;26.50;;;;;12.88;100.00;101440.91;3731069;37;21230;-80
2022/04/27 05:25:50;;;;;;;;;21.50;20.50;;;;;12.80;100.00;101446.38;3730124;38;21185;-82
2022/04/27 05:31:54;;;;;;;;;23.75;22.50;;;;;12.61;100.00;101415.06;3732516;38;21111;-82
2022/04/27 05:34:06;;;;;;;;;23.75;23.00;;;;;12.70;100.00;101454.75;3732952;37;21175;-83
2022/04/27 05:36:33;;;;;;;;;22.75;22.75;;;;;12.51;100.00;101434.25;3732901;38;21193;-82
2022/04/27 05:39:24;;;;;;;;;23.75;23.50;;;;;12.76;100.00;101442.31;3732177;37;21063;-82
2022/04/27 05:44:37;;;;;;;;;20.50;19.75;;;;;12.80;100.00;101451.81;3729926;38;21169;-80
2022/04/27 05:47:05;;;;;;;;;21.25;20.50;;;;;12.38;100.00;101415.00;3728876;38;21220;-81
2022/04/27 05:49:50;;;;;;;;;23.25;22.75;;;;;12.53;100.00;101493.81;3729601;38;21166;-81
2022/04/27 05:52:21;;;;;;;;;23.50;23.50;;;;;12.07;100.00;101447.44;3729920;37;21093;-81
2022/04/27 05:54:49;;;;;;;;;22.50;21.25;;;;;12.16;100.00;101478.97;3730253;37;21319;-82
2022/04/27 05:57:47;;;;;;;;;24.50;24.00;;;;;12.27;100.00;101489.50;3730290;38;21056;-83
2022/04/27 06:00:15;;;;;;;;;24.75;24.50;;;;;12.28;100.00;101484.91;3729597;37;21047;-80
2022/04/27 06:02:53;;;;;;;;;29.00;27.00;;;;;12.32;100.00;101488.13;3730183;37;21243;-82
2022/04/27 06:05:20;;;;;;;;;20.75;20.75;;;;;12.36;100.00;101474.03;3729991;37;21057;-80
2022/04/27 06:07:48;;;;;;;;;27.75;27.50;;;;;12.49;100.00;101489.75;3730343;38;21119;-82
2022/04/27 06:10:15;;;;;;;;;25.50;25.25;;;;;12.45;100.00;101485.72;3730825;38;21161;-81
2022/04/27 06:12:49;;;;;;;;;27.75;26.25;;;;;12.34;100.00;101451.66;3731338;37;21040;-81
2022/04/27 06:15:16;;;;;;;;;28.75;27.75;;;;;10.78;100.00;101182.78;3731550;38;21301;-88
2022/04/27 06:17:43;;;;;;;;;21.50;20.00;;;;;12.66;100.00;101480.56;3731465;37;21023;-79
2022/04/27 06:20:11;;;;;;;;;23.25;22.75;;;;;12.59;100.00;101469.53;3731336;37;21032;-81
2022/04/27 06:22:39;;;;;;;;;21.25;20.25;;;;;12.73;100.00;101470.69;3731825;37;21225;-82
2022/04/27 06:25:07;;;;;;;;;18.50;18.50;;;;;12.88;100.00;101476.25;3731273;37;21036;-76
2022/04/27 06:27:53;;;;;;;;;25.75;25.00;;;;;13.05;100.00;101466.12;3732452;37;21123;-78
2022/04/27 06:30:20;;;;;;;;;23.00;21.50;;;;;13.36;100.00;101486.03;3732992;37;20996;-81
2022/04/27 06:32:49;;;;;;;;;19.25;18.25;;;;;13.62;100.00;101487.53;3731967;38;21033;-79
2022/04/27 06:35:17;;;;;;;;;16.75;16.00;;;;;13.76;100.00;101484.03;3730819;38;21307;-83
2022/04/27 06:37:45;;;;;;;;;21.25;20.25;;;;;13.78;100.00;101452.06;3730685;38;21032;-80
2022/04/27 06:40:12;;;;;;;;;19.75;19.50;;;;;14.23;100.00;101481.91;3731361;38;21235;-82
2022/04/27 06:42:42;;;;;;;;;16.25;16.25;;;;;14.46;100.00;101481.03;3730621;37;21105;-81
2022/04/27 06:45:38;;;;;;;;;19.00;19.00;;;;;14.06;100.00;101382.37;3730502;37;21114;-85
2022/04/27 06:48:24;;;;;;;;;20.00;19.50;;;;;14.47;100.00;101482.75;3727970;37;20979;-74
2022/04/27 06:51:09;;;;;;;;;21.75;21.25;;;;;14.45;100.00;101482.94;3730015;38;20862;-82
2022/04/27 06:53:41;;;;;;;;;22.00;21.00;;;;;14.46;100.00;101476.44;3730347;38;21001;-79
2022/04/27 06:56:08;;;;;;;;;20.75;20.75;;;;;14.04;100.00;101400.78;3730689;37;21092;-83
2022/04/27 06:58:55;;;;;;;;;17.75;17.75;;;;;14.67;100.00;101502.94;3732056;38;20984;-84
2022/04/27 07:01:22;;;;;;;;;21.25;19.50;;;;;14.87;100.00;101486.84;3732820;37;21114;-80
2022/04/27 07:03:55;;;;;;;;;20.25;19.25;;;;;14.01;100.00;101354.91;3733135;38;20997;-82
2022/04/27 07:06:22;;;;;;;;;13.00;13.00;;;;;14.90;100.00;101484.59;3730386;37;21014;-77
2022/04/27 07:08:50;;;;;;;;;12.75;12.75;;;;;14.78;100.00;101497.00;3732057;37;21031;-85
2022/04/27 07:11:18;;;;;;;;;16.00;15.50;;;;;14.59;100.00;101483.94;3730312;37;21017;-80
2022/04/27 07:13:45;;;;;;;;;16.50;15.75;;;;;14.08;100.00;101417.56;3731787;38;20994;-77
2022/04/27 07:16:12;;;;;;;;;13.00;13.00;;;;;14.36;100.00;101511.25;3731045;38;21005;-81
2022/04/27 07:18:39;;;;;;;;;13.00;12.75;;;;;14.50;100.00;101499.56;3732658;37;21077;-78
2022/04/27 07:21:08;;;;;;;;;12.00;12.00;;;;;14.18;100.00;101434.50;3730940;37;20968;-79
2022/04/27 07:23:36;;;;;;;;;12.25;12.25;;;;;14.61;100.00;101487.31;3731238;37;21070;-78
2022/04/27 07:26:05;;;;;;;;;12.00;12.00;;;;;14.89;100.00;101499.25;3730902;37;20983;-81
2022/04/27 07:28:32;;;;;;;;;12.25;12.25;;;;;14.90;100.00;101484.59;3729138;38;20971;-76
2022/04/27 07:31:00;;;;;;;;;13.00;12.50;;;;;14.79;100.00;101465.16;3730112;38;20953;-80
2022/04/27 07:33:27;;;;;;;;;13.75;13.75;;;;;15.20;100.00;101498.16;3730646;37;20920;-79
2022/04/27 07:35:54;;;;;;;;;15.50;15.00;;;;;15.48;100.00;101490.13;3730662;38;20973;-80
2022/04/27 07:38:21;;;;;;;;;14.25;13.75;;;;;15.79;100.00;101490.66;3730971;37;21046;-82
2022/04/27 07:43:19;;;;;;;;;11.00;11.00;;;;;16.17;100.00;101452.97;3730444;38;21003;-80
2022/04/27 07:45:50;;;;;;;;;12.75;12.50;;;;;16.69;100.00;101487.19;3729696;38;21005;-78
2022/04/27 07:48:21;;;;;;;;;12.25;12.25;;;;;16.82;100.00;101459.06;3729613;38;21009;-76
2022/04/27 07:50:48;;;;;;;;;12.25;12.25;;;;;16.66;100.00;101432.91;3731762;37;21192;-83
2022/04/27 07:53:16;;;;;;;;;13.75;13.75;;;;;16.99;100.00;101481.47;3732072;37;21120;-84
2022/04/27 07:55:43;;;;;;;;;14.50;14.50;;;;;17.27;100.00;101467.66;3732128;38;20957;-83
2022/04/27 07:58:10;;;;;;;;;16.00;14.25;;;;;17.45;100.00;101484.34;3731552;37;21193;-83
2022/04/27 08:00:38;;;;;;;;;14.50;14.00;;;;;17.45;100.00;101481.63;3732233;37;21156;-86
2022/04/27 08:03:05;;;;;;;;;13.00;13.00;;;;;17.60;100.00;101479.56;3732803;38;20914;-83
2022/04/27 08:05:37;;;;;;;;;16.50;15.50;;;;;17.52;100.00;101482.47;3732355;37;20977;-82
2022/04/27 08:08:06;;;;;;;;;15.75;15.25;;;;;17.51;99.05;101480.81;3732140;37;20997;-86
2022/04/27 08:10:34;;;;;;;;;13.25;13.25;;;;;17.03;98.26;101444.47;3732093;38;20929;-83
2022/04/27 08:13:01;;;;;;;;;11.00;10.00;;;;;17.15;98.40;101506.59;3731659;37;20901;-82
2022/04/27 08:15:29;;;;;;;;;11.50;11.50;;;;;16.99;98.36;101567.09;3732033;37;20853;-84
2022/04/27 08:18:01;;;;;;;;;14.75;14.75;;;;;16.89;98.68;101495.50;3731613;37;21043;-83
2022/04/27 08:23:22;;;;;;;;;12.25;12.25;;;;;16.90;98.43;101486.25;3731577;38;20864;-76
2022/04/27 08:25:50;;;;;;;;;7.00;6.25;;;;;16.71;98.37;101463.22;3731315;38;20877;-80
2022/04/27 08:28:19;;;;;;;;;12.00;12.00;;;;;16.69;99.25;101451.66;3730390;38;20792;-79
2022/04/27 08:30:48;;;;;;;;;8.00;7.00;;;;;16.88;97.26;101459.12;3730746;38;21083;-81
2022/04/27 08:33:16;;;;;;;;;12.75;12.75;;;;;17.07;95.98;101473.94;3730764;38;20886;-79
2022/04/27 08:35:43;;;;;;;;;11.25;11.25;;;;;17.15;95.11;101481.13;3729208;37;20936;-76
2022/04/27 08:38:11;;;;;;;;;12.50;11.75;;;;;17.04;95.49;101478.97;3730255;38;21088;-79
2022/04/27 08:40:40;;;;;;;;;12.75;12.75;;;;;16.99;94.33;101473.25;3729754;38;20851;-80
2022/04/27 08:45:35;;;;;;;;;11.50;10.50;;;;;17.24;94.63;101479.03;3730904;37;20863;-82
2022/04/27 08:48:03;;;;;;;;;9.75;9.25;;;;;17.55;94.67;101495.75;3731292;38;20867;-80
2022/04/27 08:50:31;;;;;;;;;8.00;8.00;;;;;17.56;91.88;101452.81;3729924;38;20911;-78
2022/04/27 08:52:58;;;;;;;;;12.00;11.00;;;;;17.86;89.10;101462.34;3730345;37;20765;-82
2022/04/27 08:55:27;;;;;;;;;8.75;8.75;;;;;18.23;87.65;101487.41;3730461;38;21000;-80
2022/04/27 08:58:15;;;;;;;;;7.25;7.25;;;;;18.55;82.44;101503.00;3728587;37;20914;-76
2022/04/27 09:00:44;;;;;;;;;7.00;7.00;;;;;18.60;73.88;101495.00;3729259;37;21120;-80
2022/04/27 09:03:29;;;;;;;;;8.00;8.00;;;;;18.44;73.22;101492.66;3730670;38;20963;-82
2022/04/27 09:06:01;;;;;;;;;5.50;5.50;;;;;18.33;70.91;101499.62;3729027;37;20998;-78
2022/04/27 09:08:45;;;;;;;;;6.00;6.00;;;;;17.87;71.77;101494.16;3728237;37;20949;-77
2022/04/27 09:11:21;;;;;;;;;5.00;4.50;;;;;17.37;71.94;101419.72;3727621;37;20885;-75
2022/04/27 09:13:53;;;;;;;;;16.00;15.50;;;;;17.59;74.28;101444.19;3727412;38;20761;-76
2022/04/27 09:16:23;;;;;;;;;8.25;8.25;;;;;17.52;73.02;101431.31;3727381;37;20852;-75
2022/04/27 09:22:00;;;;;;;;;9.00;9.00;;;;;17.83;73.51;101487.41;3728399;37;20921;-79
2022/04/27 09:24:28;;;;;;;;;11.75;10.50;;;;;17.89;76.86;101463.81;3729086;38;20704;-77
2022/04/27 09:27:17;;;;;;;;;7.25;7.25;;;;;17.92;71.37;101456.03;3728657;38;20906;-77
2022/04/27 09:29:57;;;;;;;;;9.25;9.00;;;;;18.30;75.32;101480.87;3728150;37;20899;-80
2022/04/27 09:32:24;;;;;;;;;13.25;13.25;;;;;18.61;72.60;101480.25;3727470;37;20680;-76
2022/04/27 09:34:52;;;;;;;;;8.00;8.00;;;;;18.45;69.49;101486.12;3726718;38;21024;-76
2022/04/27 09:37:24;;;;;;;;;7.25;7.25;;;;;18.49;67.32;101485.50;3726843;37;20867;-76
2022/04/27 09:40:20;;;;;;;;;9.00;9.00;;;;;18.62;66.51;101481.94;3726488;37;20845;-74
2022/04/27 09:42:47;;;;;;;;;4.25;4.00;;;;;18.60;64.80;101485.91;3725821;37;20799;-74
2022/04/27 09:45:16;;;;;;;;;6.50;5.50;;;;;18.62;64.23;101487.41;3725788;38;20871;-74
2022/04/27 09:47:53;;;;;;;;;12.75;12.25;;;;;18.58;67.14;101486.12;3726942;37;20844;-76
2022/04/27 09:50:21;;;;;;;;;14.00;14.00;;;;;18.30;66.40;101447.13;3726699;37;20766;-75
2022/04/27 09:52:48;;;;;;;;;6.00;6.00;;;;;18.45;60.68;101503.41;3726983;37;20780;-76
2022/04/27 09:55:17;;;;;;;;;4.50;4.50;;;;;18.44;59.16;101478.97;3726993;38;20691;-75
2022/04/27 09:57:44;;;;;;;;;7.00;7.00;;;;;18.54;59.79;101476.63;3728411;37;20934;-77
2022/04/27 10:00:12;;;;;;;;;4.75;4.75;;;;;18.54;60.72;101465.66;3726484;37;20698;-75
2022/04/27 10:02:46;;;;;;;;;8.00;7.00;;;;;18.68;63.58;101455.53;3725694;38;20857;-72
2022/04/27 10:05:13;;;;;;;;;6.75;6.75;;;;;18.70;65.10;101472.62;3725738;37;20920;-74
2022/04/27 10:07:42;;;;;;;;;7.75;7.75;;;;;18.95;66.68;101457.13;3725807;37;20878;-71
2022/04/27 10:10:10;;;;;;;;;9.50;9.50;;;;;19.12;64.90;101452.00;3725816;37;20917;-80
2022/04/27 10:12:39;;;;;;;;;11.25;11.25;;;;;19.16;64.65;101443.09;3727265;38;20885;-76
2022/04/27 10:15:07;;;;;;;;;7.75;7.75;;;;;19.29;65.30;101441.34;3726286;38;20994;-77
2022/04/27 10:17:34;;;;;;;;;9.00;9.00;;;;;18.73;61.71;101349.59;3726632;37;20653;-76
2022/04/27 10:20:31;;;;;;;;;8.25;7.50;;;;;18.30;61.56;101242.47;3727624;37;20867;-76
2022/04/27 10:23:33;;;;;;;;;6.00;6.00;;;;;19.15;59.22;101435.09;3728100;38;20748;-73
2022/04/27 10:26:14;;;;;;;;;7.75;6.75;;;;;18.99;62.83;101432.84;3727234;37;21149;-74
2022/04/27 10:28:48;;;;;;;;;6.25;6.25;;;;;19.10;63.17;101446.72;3727216;38;20793;-75
2022/04/27 10:32:02;;;;;;;;;10.50;9.75;;;;;18.93;63.26;101444.69;3727560;38;20856;-74
2022/04/27 10:34:29;;;;;;;;;7.00;6.00;;;;;19.05;64.39;101426.50;3726797;37;20900;-74
2022/04/27 10:36:58;;;;;;;;;9.25;8.75;;;;;19.03;61.19;101414.88;3727014;38;20831;-74
2022/04/27 10:39:28;;;;;;;;;6.00;6.00;;;;;18.82;63.90;101416.87;3726927;37;20615;-74
2022/04/27 10:47:07;;;;;;;;;8.00;8.00;;;;;19.21;62.29;101442.47;3727554;38;20641;-73
2022/04/27 10:49:34;;;;;;;;;6.75;6.75;;;;;19.25;61.55;101438.19;3727225;37;20578;-77
2022/04/27 10:52:07;;;;;;;;;6.25;6.00;;;;;19.48;64.43;101443.13;3727599;38;20700;-75
2022/04/27 10:54:57;;;;;;;;;7.50;7.50;;;;;19.46;65.29;101446.09;3726934;37;20684;-74
2022/04/27 10:57:50;;;;;;;;;7.00;7.00;;;;;19.37;65.44;101450.16;3725956;38;20778;-72
2022/04/27 11:00:21;;;;;;;;;5.00;5.00;;;;;19.06;65.32;101440.00;3726826;38;20647;-72
2022/04/27 11:03:14;;;;;;;;;7.25;6.25;;;;;19.03;66.50;101453.28;3726742;37;21021;-72
2022/04/27 11:05:41;;;;;;;;;5.75;5.75;;;;;18.90;64.49;101458.84;3728155;37;20584;-72
2022/04/27 11:08:35;;;;;;;;;8.00;8.00;;;;;18.76;66.65;101442.41;3726996;37;20740;-72
2022/04/27 11:11:07;;;;;;;;;7.50;7.50;;;;;18.34;68.72;101383.47;3726151;38;20535;-72
2022/04/27 11:13:38;;;;;;;;;10.75;10.00;;;;;18.55;73.02;101444.56;3726664;37;20679;-76
2022/04/27 11:16:10;;;;;;;;;8.00;8.00;;;;;18.49;73.44;101436.16;3726156;37;20750;-72
2022/04/27 11:18:55;;;;;;;;;12.00;10.00;;;;;18.46;72.90;101436.56;3725789;38;20493;-74
2022/04/27 11:21:30;;;;;;;;;8.00;8.00;;;;;18.59;75.73;101443.94;3727221;37;20812;-78
2022/04/27 11:23:58;;;;;;;;;7.00;7.00;;;;;18.67;84.29;101437.41;3726970;37;20650;-74
2022/04/27 11:26:26;;;;;;;;;15.50;15.50;;;;;18.59;92.76;101441.19;3727783;38;20775;-74
2022/04/27 11:28:54;;;;;;;;;7.00;7.00;;;;;18.62;96.19;101416.13;3727218;38;20641;-79
2022/04/27 11:31:21;;;;;;;;;7.25;7.25;;;;;18.62;91.44;101413.37;3728240;38;20636;-77
2022/04/27 11:33:48;;;;;;;;;8.75;8.75;;;;;18.68;98.63;101417.16;3728432;37;20579;-78
2022/04/27 11:36:27;;;;;;;;;10.75;9.50;;;;;18.68;100.00;101406.19;3729473;38;20596;-79
2022/04/27 11:38:55;;;;;;;;;2.00;2.00;;;;;18.82;94.82;101416.03;3728227;38;20619;-73
2022/04/27 11:41:24;;;;;;;;;6.75;6.75;;;;;18.84;94.31;101413.91;3727300;37;20765;-72
2022/04/27 11:43:55;;;;;;;;;5.50;5.00;;;;;18.99;94.61;101411.75;3727257;38;20649;-75
2022/04/27 11:46:22;;;;;;;;;5.00;5.00;;;;;19.03;92.98;101402.00;3726409;37;20554;-76
2022/04/27 11:48:55;;;;;;;;;9.00;9.00;;;;;19.08;97.35;101396.72;3729603;37;20791;-75
2022/04/27 11:51:23;;;;;;;;;6.75;6.75;;;;;18.50;89.00;101311.75;3730215;38;20508;-77
2022/04/27 11:53:51;;;;;;;;;8.00;8.00;;;;;19.05;93.10;101393.56;3729535;37;20728;-77
2022/04/27 11:56:19;;;;;;;;;4.50;4.50;;;;;18.96;85.79;101395.72;3728120;37;20634;-76
2022/04/27 11:58:49;;;;;;;;;6.00;5.75;;;;;18.83;82.51;101382.91;3728164;37;20674;-73
2022/04/27 12:01:21;;;;;;;;;6.00;6.00;;;;;19.07;86.42;101408.75;3727012;37;21005;-75
2022/04/27 12:03:52;;;;;;;;;6.50;6.50;;;;;18.89;82.97;101397.62;3728272;38;20981;-77
2022/04/27 12:06:20;;;;;;;;;8.75;8.75;;;;;18.68;82.97;101389.75;3727676;38;20604;-74